MYBO weather

Ocean Cay Airport
Ocean Cay, Bimini, Bahamas

Public forecast

Using degrees Celsius for public forecast. Weather courtesy of forecast.io.

METAR (pilot weather report)

Closest report is Miami International Airport, 62.6 nm (116.0 km) WNW. Retrieved 2019/09/19 18:53 UTC (60 minutes ago):

KMIA 191853Z 06012G20KT 10SM BKN035 BKN060 29/18 A2992 RMK AO2 SLP132 T02890183

TAF (pilot weather forecast)

Closest forecast is Miami International Airport, 62.6 nm (116.0 km) WNW. Retrieved 2019/09/19 18:48 UTC (1 hour ago):

TAF KMIA 191746Z 1918/2024 06015G25KT P6SM VCSH SCT035 BKN050 FM200200 07013KT P6SM SCT030 SCT050 FM201500 07015G25KT P6SM VCSH BKN050